createdAt,value
2018-05-03T00:00:31.757Z,54.50
2018-05-03T00:01:34.304Z,53.90
2018-05-03T00:02:37.565Z,54.00
2018-05-03T00:03:40.059Z,54.00
2018-05-03T00:04:43.327Z,54.10
2018-05-03T00:05:46.072Z,54.10
2018-05-03T00:06:49.335Z,54.50
2018-05-03T00:07:51.828Z,54.30
2018-05-03T00:08:54.299Z,54.30
2018-05-03T00:09:57.608Z,54.50
2018-05-03T00:11:00.394Z,54.50
2018-05-03T00:12:02.920Z,54.50
2018-05-03T00:13:05.412Z,54.70
2018-05-03T00:14:08.729Z,54.90
2018-05-03T00:15:11.690Z,54.90
2018-05-03T00:16:16.246Z,55.10
2018-05-03T00:17:18.756Z,55.20
2018-05-03T00:18:21.253Z,55.80
2018-05-03T00:19:23.733Z,55.40
2018-05-03T00:20:26.639Z,55.40
2018-05-03T00:21:29.972Z,55.70
2018-05-03T00:22:32.439Z,55.70
2018-05-03T00:23:34.903Z,55.90
2018-05-03T00:24:37.368Z,56.10
2018-05-03T00:25:40.110Z,56.30
2018-05-03T00:26:42.592Z,56.50
2018-05-03T00:27:45.060Z,56.60
2018-05-03T00:28:48.356Z,56.70
2018-05-03T00:29:50.864Z,56.70
2018-05-03T00:30:54.483Z,56.80
2018-05-03T00:31:57.003Z,56.80
2018-05-03T00:32:59.464Z,56.90
2018-05-03T00:34:01.940Z,57.00
2018-05-03T00:35:04.647Z,57.10
2018-05-03T00:36:07.521Z,57.70
2018-05-03T00:37:10.020Z,57.20
2018-05-03T00:38:12.487Z,57.30
2018-05-03T00:39:15.023Z,57.30
2018-05-03T00:40:17.788Z,57.30
2018-05-03T00:41:20.597Z,57.30
2018-05-03T00:42:23.080Z,57.30
2018-05-03T00:43:25.557Z,57.30
2018-05-03T00:44:28.788Z,57.50
2018-05-03T00:45:31.542Z,57.90
2018-05-03T00:46:34.097Z,57.50
2018-05-03T00:47:37.331Z,57.50
2018-05-03T00:48:39.795Z,57.50
2018-05-03T00:49:42.269Z,57.60
2018-05-03T00:50:45.041Z,57.70
2018-05-03T00:51:48.308Z,57.80
2018-05-03T00:52:50.772Z,57.70
2018-05-03T00:53:53.241Z,57.90
2018-05-03T00:54:55.708Z,57.90
2018-05-03T00:55:58.369Z,58.00
2018-05-03T00:57:00.876Z,58.10
2018-05-03T00:58:04.112Z,58.60
2018-05-03T00:59:06.576Z,58.20
2018-05-03T01:00:09.254Z,58.20
2018-05-03T01:01:12.325Z,58.20
2018-05-03T01:02:14.868Z,58.30
2018-05-03T01:03:17.351Z,58.40
2018-05-03T01:04:19.815Z,58.50
2018-05-03T01:05:22.663Z,58.50
2018-05-03T01:06:25.376Z,58.60
2018-05-03T01:07:27.877Z,59.20
2018-05-03T01:08:31.103Z,59.00
2018-05-03T01:09:33.577Z,59.00
2018-05-03T01:10:37.441Z,59.10
2018-05-03T01:11:39.944Z,59.10
2018-05-03T01:12:42.428Z,59.20
2018-05-03T01:13:44.892Z,59.30
2018-05-03T01:14:47.351Z,59.40
2018-05-03T01:15:50.172Z,59.50
2018-05-03T01:16:52.676Z,60.00
2018-05-03T01:17:55.157Z,59.70
2018-05-03T01:18:57.638Z,59.80
2018-05-03T01:20:00.910Z,60.10
2018-05-03T01:21:03.638Z,60.10
2018-05-03T01:22:06.124Z,60.30
2018-05-03T01:23:08.636Z,60.40
2018-05-03T01:24:11.869Z,60.70
2018-05-03T01:25:14.617Z,60.60
2018-05-03T01:26:17.478Z,60.70
2018-05-03T01:27:19.996Z,60.90
2018-05-03T01:28:22.556Z,61.10
2018-05-03T01:29:25.728Z,61.50
2018-05-03T01:30:28.564Z,61.50
2018-05-03T01:31:31.071Z,61.60
2018-05-03T01:32:33.556Z,61.70
2018-05-03T01:33:36.055Z,61.80
2018-05-03T01:34:38.516Z,62.00
2018-05-03T01:35:53.173Z,62.10
2018-05-03T01:36:56.475Z,62.50
2018-05-03T01:37:58.953Z,62.50
2018-05-03T01:39:01.436Z,62.80
2018-05-03T01:40:04.154Z,63.10
2018-05-03T01:41:06.973Z,66.60
2018-05-03T01:42:09.452Z,68.00
2018-05-03T01:43:13.444Z,69.00
2018-05-03T01:44:15.930Z,69.00
2018-05-03T01:45:19.549Z,69.80
2018-05-03T01:46:22.341Z,69.70
2018-05-03T01:47:24.824Z,70.70
2018-05-03T01:48:27.307Z,71.60
2018-05-03T01:49:29.784Z,72.10
2018-05-03T01:50:33.304Z,75.30
2018-05-03T01:51:35.807Z,75.10
2018-05-03T01:52:38.344Z,76.30
2018-05-03T01:53:40.829Z,77.70
2018-05-03T01:54:43.300Z,78.40
2018-05-03T01:55:46.136Z,79.20
2018-05-03T01:56:48.623Z,79.70
2018-05-03T01:57:51.180Z,80.60
2018-05-03T01:58:53.655Z,81.90
2018-05-03T01:59:56.115Z,84.00
2018-05-03T02:00:58.866Z,85.30
2018-05-03T02:02:01.427Z,86.00
2018-05-03T02:03:03.908Z,86.30
2018-05-03T02:04:06.392Z,86.70
2018-05-03T02:05:09.133Z,87.50
2018-05-03T02:06:12.724Z,88.40
2018-05-03T02:07:15.360Z,89.00
2018-05-03T02:08:18.599Z,90.10
2018-05-03T02:09:21.096Z,90.10
2018-05-03T02:10:23.750Z,90.20
2018-05-03T02:11:26.481Z,90.30
2018-05-03T02:12:28.987Z,90.60
2018-05-03T02:13:31.458Z,90.60
2018-05-03T02:14:33.961Z,90.90
2018-05-03T02:15:37.405Z,91.10
2018-05-03T02:16:39.884Z,91.10
2018-05-03T02:17:42.348Z,91.20
2018-05-03T02:18:44.812Z,91.80
2018-05-03T02:19:47.296Z,92.00
2018-05-03T02:20:50.858Z,93.20
2018-05-03T02:21:54.115Z,93.30
2018-05-03T02:22:56.584Z,93.40
2018-05-03T02:23:59.051Z,93.50
2018-05-03T02:25:01.811Z,93.70
2018-05-03T02:26:04.706Z,93.60
2018-05-03T02:27:07.976Z,94.20
2018-05-03T02:28:10.455Z,94.30
2018-05-03T02:29:12.927Z,94.70
2018-05-03T02:30:15.647Z,95.10
2018-05-03T02:31:18.333Z,95.20
2018-05-03T02:32:20.828Z,95.20
2018-05-03T02:33:23.297Z,95.20
2018-05-03T02:34:25.781Z,95.40
2018-05-03T02:35:29.302Z,95.40
2018-05-03T02:36:31.801Z,95.40
2018-05-03T02:37:34.268Z,95.50
2018-05-03T02:38:37.544Z,95.70
2018-05-03T02:39:40.020Z,95.60
2018-05-03T02:40:42.793Z,95.70
2018-05-03T02:41:45.285Z,95.70
2018-05-03T02:42:48.532Z,95.80
2018-05-03T02:43:50.995Z,95.80
2018-05-03T02:44:53.460Z,95.90
2018-05-03T02:45:56.196Z,95.90
2018-05-03T02:46:58.696Z,95.90
2018-05-03T02:48:01.161Z,95.90
2018-05-03T02:49:03.633Z,95.90
2018-05-03T02:50:06.404Z,95.90
2018-05-03T02:51:10.051Z,96.20
2018-05-03T02:52:12.548Z,96.20
2018-05-03T02:53:15.016Z,96.20
2018-05-03T02:54:17.488Z,96.30
2018-05-03T02:55:20.322Z,96.30
2018-05-03T02:56:23.028Z,96.50
2018-05-03T02:57:37.509Z,96.70
2018-05-03T02:58:52.777Z,96.80
2018-05-03T03:00:08.064Z,96.80
2018-05-03T03:01:28.720Z,96.80
2018-05-03T03:02:49.636Z,96.80
2018-05-03T03:04:10.608Z,96.80
2018-05-03T03:05:31.014Z,96.80
2018-05-03T03:06:51.220Z,96.80
2018-05-03T03:10:09.869Z,96.90
2018-05-03T03:11:28.104Z,96.90
2018-05-03T03:12:58.005Z,97.00
2018-05-03T03:14:18.089Z,97.00
2018-05-03T03:15:38.503Z,96.90
2018-05-03T03:16:58.892Z,96.90
2018-05-03T03:18:13.383Z,96.90
2018-05-03T03:19:28.531Z,97.20
2018-05-03T03:20:57.858Z,97.20
2018-05-03T03:22:18.865Z,97.80
2018-05-03T03:23:39.100Z,97.40
2018-05-03T03:26:41.726Z,97.70
2018-05-03T03:28:02.176Z,97.90
2018-05-03T03:29:22.958Z,98.40
2018-05-03T03:30:43.318Z,98.10
2018-05-03T03:32:03.612Z,98.20
2018-05-03T03:33:18.109Z,98.30
2018-05-03T03:34:24.086Z,98.60
2018-05-03T03:37:14.989Z,98.90
2018-05-03T03:38:35.260Z,99.00
2018-05-03T03:39:49.525Z,99.00
2018-05-03T03:41:04.173Z,99.10
2018-05-03T03:44:15.255Z,99.20
2018-05-03T03:45:17.984Z,99.10
2018-05-03T03:46:20.657Z,99.20
2018-05-03T03:47:23.154Z,99.20
2018-05-03T03:48:25.625Z,99.20
2018-05-03T03:49:28.110Z,99.20
2018-05-03T03:50:30.753Z,99.20
2018-05-03T03:51:33.248Z,99.20
2018-05-03T03:52:35.720Z,99.10
2018-05-03T03:53:38.948Z,99.30
2018-05-03T03:54:41.448Z,99.20
2018-05-03T03:55:44.162Z,99.30
2018-05-03T03:56:46.656Z,99.40
2018-05-03T03:57:49.129Z,99.50
2018-05-03T03:58:51.600Z,99.60
2018-05-03T03:59:54.134Z,99.60
2018-05-03T04:00:56.893Z,99.50
2018-05-03T04:01:59.394Z,99.50
2018-05-03T04:03:01.861Z,99.40
2018-05-03T04:04:04.332Z,99.40
2018-05-03T04:05:07.061Z,99.40
2018-05-03T04:06:09.731Z,99.30
2018-05-03T04:07:12.229Z,99.30
2018-05-03T04:08:14.714Z,99.30
2018-05-03T04:09:17.188Z,99.30
2018-05-03T04:10:20.812Z,97.80
2018-05-03T04:11:23.481Z,97.80
2018-05-03T04:12:25.976Z,97.60
2018-05-03T04:13:28.444Z,97.70
2018-05-03T04:14:30.912Z,97.60
2018-05-03T04:15:33.680Z,97.20
2018-05-03T04:16:36.168Z,97.10
2018-05-03T04:17:50.564Z,96.80
2018-05-03T04:19:04.948Z,96.30
2018-05-03T04:20:20.076Z,95.30
2018-05-03T04:21:34.380Z,94.50
2018-05-03T04:22:49.976Z,93.60
2018-05-03T04:24:13.279Z,93.60
2018-05-03T04:26:56.812Z,92.60
2018-05-03T04:27:59.287Z,92.60
2018-05-03T04:29:02.530Z,92.60
2018-05-03T04:30:05.174Z,92.60
2018-05-03T04:31:07.945Z,92.50
2018-05-03T04:32:10.444Z,91.80
2018-05-03T04:33:12.916Z,91.10
2018-05-03T04:34:15.375Z,91.00
2018-05-03T04:35:18.215Z,91.20
2018-05-03T04:36:20.984Z,91.50
2018-05-03T04:37:23.490Z,91.80
2018-05-03T04:38:25.971Z,92.10
2018-05-03T04:39:28.508Z,91.70
2018-05-03T04:40:31.251Z,91.80
2018-05-03T04:41:33.788Z,91.50
2018-05-03T04:42:37.076Z,90.60
2018-05-03T04:43:40.316Z,90.60
2018-05-03T04:44:42.807Z,90.60
2018-05-03T04:45:45.524Z,90.80
2018-05-03T04:46:48.040Z,90.40
2018-05-03T04:47:50.508Z,90.40
2018-05-03T04:48:52.988Z,90.30
2018-05-03T04:49:56.215Z,90.40
2018-05-03T04:50:59.815Z,90.40
2018-05-03T04:52:02.320Z,90.40
2018-05-03T04:53:05.557Z,90.30
2018-05-03T04:54:08.058Z,90.30
2018-05-03T04:55:10.714Z,90.30
2018-05-03T04:56:13.401Z,90.00
2018-05-03T04:57:16.688Z,89.50
2018-05-03T04:58:20.050Z,89.80
2018-05-03T04:59:22.532Z,89.80
2018-05-03T05:00:25.277Z,89.60
2018-05-03T05:01:28.037Z,89.70
2018-05-03T05:02:30.518Z,89.90
2018-05-03T05:03:32.980Z,90.00
2018-05-03T05:04:35.460Z,90.10
2018-05-03T05:05:38.214Z,90.00
2018-05-03T05:06:41.510Z,89.30
2018-05-03T05:07:44.014Z,89.30
2018-05-03T05:08:46.529Z,89.40
2018-05-03T05:09:48.996Z,89.40
2018-05-03T05:10:51.644Z,89.00
2018-05-03T05:11:54.131Z,88.20
2018-05-03T05:12:56.617Z,88.10
2018-05-03T05:13:59.084Z,86.60
2018-05-03T05:15:03.000Z,87.70
2018-05-03T05:16:05.764Z,87.40
2018-05-03T05:17:08.253Z,87.70
2018-05-03T05:18:10.745Z,87.20
2018-05-03T05:19:13.306Z,87.10
2018-05-03T05:20:16.153Z,86.90
2018-05-03T05:21:19.028Z,86.00
2018-05-03T05:22:21.556Z,85.90
2018-05-03T05:23:24.288Z,85.10
2018-05-03T05:24:26.751Z,84.90
2018-05-03T05:25:29.413Z,84.70
2018-05-03T05:26:31.896Z,84.70
2018-05-03T05:27:34.355Z,85.00
2018-05-03T05:28:36.854Z,85.30
2018-05-03T05:29:40.108Z,85.70
2018-05-03T05:30:42.987Z,85.60
2018-05-03T05:31:45.463Z,85.80
2018-05-03T05:32:47.965Z,84.80
2018-05-03T05:33:50.707Z,84.50
2018-05-03T05:34:53.193Z,84.60
2018-05-03T05:35:56.805Z,85.10
2018-05-03T05:36:59.363Z,85.00
2018-05-03T05:38:01.840Z,84.40
2018-05-03T05:39:04.429Z,84.70
2018-05-03T05:40:07.178Z,84.70
2018-05-03T05:41:10.098Z,84.60
2018-05-03T05:42:13.356Z,84.70
2018-05-03T05:43:15.819Z,84.50
2018-05-03T05:44:18.331Z,85.10
2018-05-03T05:45:20.987Z,86.00
2018-05-03T05:46:24.518Z,86.20
2018-05-03T05:47:27.176Z,86.10
2018-05-03T05:48:29.704Z,86.50
2018-05-03T05:49:32.352Z,86.60
2018-05-03T05:50:35.193Z,86.80
2018-05-03T05:51:37.691Z,87.10
2018-05-03T05:52:40.157Z,87.20
2018-05-03T05:53:42.652Z,86.80
2018-05-03T05:54:45.539Z,86.70
2018-05-03T05:55:49.219Z,86.80
2018-05-03T05:56:52.496Z,85.60
2018-05-03T05:57:56.576Z,85.80
2018-05-03T05:58:59.040Z,85.80
2018-05-03T06:00:01.564Z,85.00
2018-05-03T06:01:04.285Z,83.90
2018-05-03T06:02:07.952Z,85.60
2018-05-03T06:03:10.468Z,84.90
2018-05-03T06:04:13.720Z,85.60
2018-05-03T06:05:16.498Z,85.00
2018-05-03T06:06:19.278Z,85.30
2018-05-03T06:07:22.539Z,84.40
2018-05-03T06:08:25.090Z,84.30
2018-05-03T06:09:27.564Z,84.00
2018-05-03T06:10:30.512Z,84.20
2018-05-03T06:11:33.019Z,84.20
2018-05-03T06:12:35.518Z,84.10
2018-05-03T06:13:38.752Z,82.20
2018-05-03T06:14:41.220Z,82.20
2018-05-03T06:15:44.005Z,81.90
2018-05-03T06:16:46.533Z,82.20
2018-05-03T06:17:49.000Z,82.90
2018-05-03T06:18:51.476Z,83.50
2018-05-03T06:19:53.940Z,83.10
2018-05-03T06:20:56.793Z,82.10
2018-05-03T06:22:01.140Z,82.00
2018-05-03T06:23:03.620Z,82.00
2018-05-03T06:24:06.108Z,81.10
2018-05-03T06:25:09.831Z,80.30
2018-05-03T06:26:12.596Z,80.30
2018-05-03T06:27:15.096Z,81.00
2018-05-03T06:28:17.580Z,80.90
2018-05-03T06:29:20.044Z,80.80
2018-05-03T06:30:22.870Z,81.20
2018-05-03T06:31:26.581Z,80.70
2018-05-03T06:32:29.082Z,80.60
2018-05-03T06:33:31.592Z,80.70
2018-05-03T06:34:34.064Z,81.20
2018-05-03T06:35:36.726Z,81.60
2018-05-03T06:36:39.236Z,81.70
2018-05-03T06:37:41.708Z,81.80
2018-05-03T06:38:44.193Z,81.90
2018-05-03T06:39:47.431Z,80.20
2018-05-03T06:40:50.185Z,80.20
2018-05-03T06:41:52.734Z,79.80
2018-05-03T06:42:55.236Z,79.60
2018-05-03T06:43:57.703Z,79.80
2018-05-03T06:45:01.955Z,79.40
2018-05-03T06:46:05.559Z,78.50
2018-05-03T06:47:08.077Z,78.50
2018-05-03T06:48:10.544Z,77.80
2018-05-03T06:49:13.028Z,78.20
2018-05-03T06:50:16.545Z,78.60
2018-05-03T06:51:19.258Z,78.60
2018-05-03T06:52:22.604Z,78.90
2018-05-03T06:53:25.088Z,78.80
2018-05-03T06:54:27.552Z,78.50
2018-05-03T06:55:30.299Z,77.80
2018-05-03T06:56:32.801Z,77.80
2018-05-03T06:57:35.307Z,78.20
2018-05-03T06:58:38.623Z,78.60
2018-05-03T06:59:41.070Z,78.60
2018-05-03T07:00:43.849Z,78.80
2018-05-03T07:01:46.351Z,78.80
2018-05-03T07:02:48.839Z,79.30
2018-05-03T07:03:51.330Z,78.60
2018-05-03T07:04:54.588Z,77.80
2018-05-03T07:05:57.734Z,77.80
2018-05-03T07:07:00.246Z,78.00
2018-05-03T07:08:03.503Z,77.80
2018-05-03T07:09:05.975Z,77.60
2018-05-03T07:10:08.792Z,77.90
2018-05-03T07:11:11.606Z,78.00
2018-05-03T07:12:14.876Z,76.10
2018-05-03T07:13:17.375Z,76.00
2018-05-03T07:14:20.624Z,75.60
2018-05-03T07:15:23.365Z,75.60
2018-05-03T07:16:26.266Z,75.60
2018-05-03T07:17:29.587Z,75.30
2018-05-03T07:18:32.853Z,75.40
2018-05-03T07:19:35.328Z,74.70
2018-05-03T07:20:38.087Z,74.00
2018-05-03T07:21:40.568Z,72.80
2018-05-03T07:22:43.817Z,72.30
2018-05-03T07:23:46.370Z,72.20
2018-05-03T07:24:49.563Z,72.10
2018-05-03T07:25:52.312Z,72.70
2018-05-03T07:26:54.804Z,71.60
2018-05-03T07:27:57.303Z,72.00
2018-05-03T07:29:00.000Z,72.00
2018-05-03T07:30:02.576Z,73.00
2018-05-03T07:31:06.274Z,72.20
2018-05-03T07:32:09.720Z,70.60
2018-05-03T07:33:12.203Z,70.60
2018-05-03T07:34:15.452Z,70.70
2018-05-03T07:35:19.100Z,70.70
2018-05-03T07:36:22.993Z,69.90
2018-05-03T07:37:25.478Z,69.10
2018-05-03T07:38:27.991Z,67.90
2018-05-03T07:39:31.256Z,68.70
2018-05-03T07:40:34.060Z,68.30
2018-05-03T07:41:36.616Z,68.10
2018-05-03T07:42:39.853Z,68.40
2018-05-03T07:43:42.323Z,68.40
2018-05-03T07:44:44.911Z,68.80
2018-05-03T07:45:47.751Z,69.30
2018-05-03T07:46:50.649Z,68.90
2018-05-03T07:47:53.132Z,68.80
2018-05-03T07:48:55.608Z,68.50
2018-05-03T07:49:58.876Z,67.90
2018-05-03T07:51:01.732Z,67.80
2018-05-03T07:52:04.227Z,68.20
2018-05-03T07:53:07.477Z,67.50
2018-05-03T07:54:09.948Z,67.50
2018-05-03T07:55:12.803Z,67.30
2018-05-03T07:56:15.431Z,66.80
2018-05-03T07:57:17.956Z,66.50
2018-05-03T07:58:20.498Z,66.80
2018-05-03T07:59:23.180Z,66.80
2018-05-03T08:00:25.913Z,67.00
2018-05-03T08:01:28.726Z,67.40
2018-05-03T08:02:32.095Z,66.50
2018-05-03T08:03:34.589Z,66.50
2018-05-03T08:04:37.960Z,65.60
2018-05-03T08:05:40.693Z,65.60
2018-05-03T08:06:43.196Z,66.00
2018-05-03T08:07:46.261Z,66.30
2018-05-03T08:08:48.784Z,65.50
2018-05-03T08:09:52.017Z,64.70
2018-05-03T08:10:54.794Z,64.70
2018-05-03T08:11:57.284Z,64.20
2018-05-03T08:12:59.767Z,63.60
2018-05-03T08:14:03.036Z,63.00
2018-05-03T08:15:05.790Z,63.00
2018-05-03T08:16:09.375Z,63.60
2018-05-03T08:17:11.863Z,63.60
2018-05-03T08:18:15.108Z,60.60
2018-05-03T08:19:17.610Z,60.60
2018-05-03T08:20:21.082Z,59.20
2018-05-03T08:21:23.579Z,59.20
2018-05-03T08:22:27.006Z,59.50
2018-05-03T08:23:29.469Z,59.50
2018-05-03T08:24:32.059Z,59.60
2018-05-03T08:25:34.891Z,59.70
2018-05-03T08:26:37.416Z,59.50
2018-05-03T08:27:40.660Z,59.70
2018-05-03T08:28:43.140Z,59.70
2018-05-03T08:29:45.624Z,59.40
2018-05-03T08:30:48.332Z,57.50
2018-05-03T08:31:50.935Z,57.40
2018-05-03T08:32:54.209Z,57.50
2018-05-03T08:33:57.460Z,57.40
2018-05-03T08:35:00.694Z,57.10
2018-05-03T08:36:03.523Z,57.10
2018-05-03T08:37:06.089Z,57.00
2018-05-03T08:38:08.587Z,57.50
2018-05-03T08:39:11.059Z,57.60
2018-05-03T08:40:13.789Z,57.00
2018-05-03T08:41:16.663Z,56.90
2018-05-03T08:42:19.219Z,56.90
2018-05-03T08:43:21.692Z,56.70
2018-05-03T08:44:24.171Z,56.30
2018-05-03T08:45:26.929Z,55.50
2018-05-03T08:46:29.466Z,55.00
2018-05-03T08:47:32.787Z,54.30
2018-05-03T08:48:35.260Z,54.30
2018-05-03T08:49:37.723Z,54.20
2018-05-03T08:50:40.580Z,54.10
2018-05-03T08:51:43.082Z,53.80
2018-05-03T08:52:45.572Z,53.20
2018-05-03T08:53:48.056Z,52.70
2018-05-03T08:54:51.298Z,52.40
2018-05-03T08:55:54.077Z,52.40
2018-05-03T08:56:58.063Z,51.80
2018-05-03T08:58:00.550Z,51.80
2018-05-03T08:59:04.539Z,51.30
2018-05-03T09:00:07.314Z,51.30
2018-05-03T09:01:10.895Z,50.10
2018-05-03T09:02:13.380Z,50.60
2018-05-03T09:03:16.627Z,49.60
2018-05-03T09:04:19.265Z,49.60
2018-05-03T09:05:22.044Z,49.30
2018-05-03T09:06:25.346Z,48.50
2018-05-03T09:07:28.001Z,48.60
2018-05-03T09:08:31.241Z,50.00
2018-05-03T09:09:34.502Z,49.50
2018-05-03T09:10:37.959Z,49.50
2018-05-03T09:11:40.503Z,49.40
2018-05-03T09:12:42.990Z,49.70
2018-05-03T09:13:45.500Z,49.30
2018-05-03T09:14:47.974Z,49.10
2018-05-03T09:15:50.679Z,48.50
2018-05-03T09:16:53.232Z,49.00
2018-05-03T09:17:56.463Z,48.40
2018-05-03T09:18:58.952Z,48.80
2018-05-03T09:20:01.441Z,48.20
2018-05-03T09:21:04.227Z,48.20
2018-05-03T09:22:06.715Z,48.20
2018-05-03T09:23:09.187Z,48.00
2018-05-03T09:24:11.695Z,47.40
2018-05-03T09:25:15.255Z,46.40
2018-05-03T09:26:18.092Z,46.40
2018-05-03T09:27:20.604Z,45.60
2018-05-03T09:28:24.560Z,45.20
2018-05-03T09:29:27.168Z,45.20
2018-05-03T09:30:30.091Z,45.30
2018-05-03T09:31:32.590Z,46.10
2018-05-03T09:32:35.084Z,45.60
2018-05-03T09:33:38.512Z,45.70
2018-05-03T09:34:41.018Z,45.60
2018-05-03T09:35:44.481Z,45.70
2018-05-03T09:36:47.008Z,45.90
2018-05-03T09:37:51.055Z,46.30
2018-05-03T09:38:53.844Z,46.30
2018-05-03T09:39:56.584Z,46.00
2018-05-03T09:40:59.546Z,46.80
2018-05-03T09:42:02.048Z,46.40
2018-05-03T09:43:04.540Z,46.40
2018-05-03T09:44:07.854Z,45.80
2018-05-03T09:45:10.666Z,45.80
2018-05-03T09:46:13.886Z,45.70
2018-05-03T09:47:16.891Z,45.50
2018-05-03T09:48:19.524Z,45.50
2018-05-03T09:49:22.998Z,45.30
2018-05-03T09:50:27.290Z,45.30
2018-05-03T09:51:30.796Z,45.20
2018-05-03T09:52:33.330Z,44.90
2018-05-03T09:53:36.523Z,44.80
2018-05-03T09:54:39.016Z,44.70
2018-05-03T09:55:41.930Z,45.10
2018-05-03T09:56:44.415Z,44.80
2018-05-03T09:57:47.136Z,44.50
2018-05-03T09:58:50.378Z,44.30
2018-05-03T09:59:53.699Z,43.90
2018-05-03T10:00:56.504Z,43.80
2018-05-03T10:01:58.996Z,43.90
2018-05-03T10:03:01.533Z,43.80
2018-05-03T10:04:04.016Z,43.40
2018-05-03T10:05:07.740Z,43.40
2018-05-03T10:06:11.458Z,42.70
2018-05-03T10:07:13.967Z,42.80
2018-05-03T10:08:16.460Z,43.10
2018-05-03T10:09:18.940Z,42.60
2018-05-03T10:10:21.698Z,42.50
2018-05-03T10:11:25.322Z,43.50
2018-05-03T10:12:27.824Z,43.00
2018-05-03T10:13:30.343Z,43.30
2018-05-03T10:14:33.651Z,43.40
2018-05-03T10:15:36.391Z,43.40
2018-05-03T10:16:39.672Z,43.80
2018-05-03T10:17:42.144Z,43.80
2018-05-03T10:18:44.617Z,43.20
2018-05-03T10:19:47.960Z,42.00
2018-05-03T10:20:50.799Z,42.00
2018-05-03T10:21:53.318Z,41.90
2018-05-03T10:22:55.782Z,41.90
2018-05-03T10:23:58.248Z,42.00
2018-05-03T10:25:01.170Z,42.40
2018-05-03T10:26:05.382Z,43.20
2018-05-03T10:27:07.897Z,42.60
2018-05-03T10:28:10.456Z,42.50
2018-05-03T10:29:12.884Z,42.50
2018-05-03T10:30:16.256Z,42.80
2018-05-03T10:31:19.026Z,43.00
2018-05-03T10:32:21.580Z,42.70
2018-05-03T10:33:24.814Z,41.90
2018-05-03T10:34:27.280Z,41.90
2018-05-03T10:35:30.010Z,41.10
2018-05-03T10:36:32.519Z,40.20
2018-05-03T10:37:35.276Z,40.40
2018-05-03T10:38:37.803Z,40.80
2018-05-03T10:39:40.280Z,41.20
2018-05-03T10:40:43.148Z,41.40
2018-05-03T10:41:45.664Z,41.40
2018-05-03T10:42:49.150Z,41.10
2018-05-03T10:43:51.620Z,41.00
2018-05-03T10:44:54.137Z,41.00
2018-05-03T10:45:56.850Z,41.00
2018-05-03T10:47:00.202Z,41.90
2018-05-03T10:48:02.727Z,41.40
2018-05-03T10:49:06.223Z,41.90
2018-05-03T10:50:08.929Z,41.90
2018-05-03T10:51:12.505Z,41.90
2018-05-03T10:52:15.015Z,41.10
2018-05-03T10:53:17.507Z,40.80
2018-05-03T10:54:20.836Z,40.20
2018-05-03T10:55:24.446Z,40.20
2018-05-03T10:56:28.655Z,40.80
2018-05-03T10:57:31.129Z,40.80
2018-05-03T10:58:33.636Z,41.30
2018-05-03T10:59:36.107Z,41.10
2018-05-03T11:00:38.775Z,40.50
2018-05-03T11:01:41.336Z,40.40
2018-05-03T11:02:43.812Z,40.10
2018-05-03T11:03:46.328Z,40.00
2018-05-03T11:04:49.601Z,40.40
2018-05-03T11:05:52.366Z,40.40
2018-05-03T11:06:54.852Z,40.50
2018-05-03T11:07:57.332Z,40.60
2018-05-03T11:09:00.680Z,39.90
2018-05-03T11:10:03.459Z,39.90
2018-05-03T11:11:07.178Z,39.60
2018-05-03T11:12:09.720Z,39.30
2018-05-03T11:13:12.189Z,39.00
2018-05-03T11:14:16.216Z,39.00
2018-05-03T11:15:19.980Z,38.60
2018-05-03T11:16:23.421Z,38.40
2018-05-03T11:17:25.978Z,38.40
2018-05-03T11:18:29.103Z,37.80
2018-05-03T11:19:31.613Z,37.70
2018-05-03T11:20:34.464Z,37.80
2018-05-03T11:21:37.824Z,37.80
2018-05-03T11:22:40.296Z,37.80
2018-05-03T11:23:43.324Z,38.10
2018-05-03T11:24:45.820Z,38.50
2018-05-03T11:25:48.771Z,38.60
2018-05-03T11:26:51.390Z,38.70
2018-05-03T11:27:54.379Z,38.90
2018-05-03T11:28:57.869Z,38.80
2018-05-03T11:30:00.357Z,38.70
2018-05-03T11:31:03.241Z,39.30
2018-05-03T11:32:05.765Z,38.70
2018-05-03T11:33:08.272Z,38.50
2018-05-03T11:34:10.746Z,38.40
2018-05-03T11:35:13.714Z,38.70
2018-05-03T11:36:16.588Z,38.60
2018-05-03T11:37:19.120Z,38.50
2018-05-03T11:38:21.596Z,38.50
2018-05-03T11:39:24.850Z,38.30
2018-05-03T11:40:27.546Z,38.30
2018-05-03T11:41:30.876Z,37.80
2018-05-03T11:42:33.350Z,37.70
2018-05-03T11:43:35.824Z,37.50
2018-05-03T11:44:38.304Z,37.50
2018-05-03T11:45:41.063Z,36.60
2018-05-03T11:46:43.560Z,36.30
2018-05-03T11:47:46.788Z,35.80
2018-05-03T11:48:49.260Z,35.80
2018-05-03T11:49:51.765Z,35.30
2018-05-03T11:50:55.334Z,35.90
2018-05-03T11:51:58.589Z,36.00
2018-05-03T11:53:01.093Z,36.00
2018-05-03T11:54:03.598Z,36.70
2018-05-03T11:55:06.314Z,36.30
2018-05-03T11:56:09.111Z,36.30
2018-05-03T11:57:12.422Z,36.30
2018-05-03T11:58:15.003Z,36.30
2018-05-03T11:59:17.551Z,36.40
2018-05-03T12:00:20.329Z,36.90
2018-05-03T12:01:23.207Z,37.10
2018-05-03T12:02:25.727Z,37.10
2018-05-03T12:03:28.196Z,37.00
2018-05-03T12:04:30.681Z,36.70
2018-05-03T12:05:34.287Z,36.50
2018-05-03T12:06:36.791Z,36.50
2018-05-03T12:07:39.261Z,36.60
2018-05-03T12:08:41.749Z,36.10
2018-05-03T12:09:45.740Z,34.80
2018-05-03T12:10:48.517Z,34.80
2018-05-03T12:11:52.761Z,35.20
2018-05-03T12:12:55.156Z,35.10
2018-05-03T12:13:57.628Z,35.20
2018-05-03T12:15:00.151Z,35.20
2018-05-03T12:16:03.799Z,34.50
2018-05-03T12:17:06.326Z,34.50
2018-05-03T12:18:08.796Z,34.40
2018-05-03T12:19:11.271Z,34.20
2018-05-03T12:20:14.111Z,34.30
2018-05-03T12:21:16.893Z,34.30
2018-05-03T12:22:19.403Z,34.50
2018-05-03T12:23:22.023Z,34.80
2018-05-03T12:24:24.753Z,35.00
2018-05-03T12:25:28.282Z,35.00
2018-05-03T12:26:31.384Z,34.80
2018-05-03T12:27:33.860Z,35.00
2018-05-03T12:28:36.336Z,35.10
2018-05-03T12:29:38.812Z,35.10
2018-05-03T12:30:41.556Z,35.40
2018-05-03T12:31:44.056Z,35.00
2018-05-03T12:32:47.596Z,34.00
2018-05-03T12:33:50.108Z,34.00
2018-05-03T12:34:53.415Z,33.70
2018-05-03T12:35:56.912Z,33.40
2018-05-03T12:37:00.009Z,33.30
2018-05-03T12:38:02.862Z,33.40
2018-05-03T12:39:05.326Z,33.00
2018-05-03T12:40:08.202Z,33.50
2018-05-03T12:41:11.075Z,33.20
2018-05-03T12:42:13.580Z,33.60
2018-05-03T12:43:16.259Z,33.90
2018-05-03T12:44:18.756Z,33.70
2018-05-03T12:45:22.310Z,33.40
2018-05-03T12:46:25.853Z,33.40
2018-05-03T12:47:29.072Z,33.40
2018-05-03T12:48:31.604Z,33.00
2018-05-03T12:49:34.089Z,32.50
2018-05-03T12:50:36.870Z,32.60
2018-05-03T12:51:39.435Z,32.80
2018-05-03T12:52:42.613Z,32.40
2018-05-03T12:53:45.120Z,32.40
2018-05-03T12:54:48.360Z,31.60
2018-05-03T12:55:51.206Z,31.10
2018-05-03T12:56:53.724Z,30.90
2018-05-03T12:57:56.196Z,31.10
2018-05-03T12:59:00.440Z,31.60
2018-05-03T13:00:03.112Z,32.20
2018-05-03T13:01:06.613Z,32.60
2018-05-03T13:02:09.112Z,32.70
2018-05-03T13:03:11.585Z,32.40
2018-05-03T13:04:14.053Z,32.20
2018-05-03T13:05:18.606Z,31.60
2018-05-03T13:06:21.480Z,31.60
2018-05-03T13:07:23.993Z,31.60
2018-05-03T13:08:26.479Z,31.40
2018-05-03T13:09:28.943Z,31.50
2018-05-03T13:10:32.876Z,31.70
2018-05-03T13:11:35.384Z,31.40
2018-05-03T13:12:37.908Z,31.40
2018-05-03T13:13:40.391Z,31.40
2018-05-03T13:14:42.905Z,31.40
2018-05-03T13:15:46.832Z,31.30
2018-05-03T13:16:49.335Z,30.90
2018-05-03T13:17:51.835Z,30.70
2018-05-03T13:18:55.094Z,30.80
2018-05-03T13:19:57.564Z,30.80
2018-05-03T13:21:01.919Z,30.40
2018-05-03T13:22:04.424Z,30.40
2018-05-03T13:23:06.956Z,30.50
2018-05-03T13:24:09.489Z,30.20
2018-05-03T13:25:13.034Z,30.30
2018-05-03T13:26:15.912Z,29.90
2018-05-03T13:27:18.511Z,29.50
2018-05-03T13:28:21.744Z,29.70
2018-05-03T13:29:24.213Z,29.70
2018-05-03T13:30:27.067Z,30.00
2018-05-03T13:31:29.632Z,30.20
2018-05-03T13:32:32.101Z,30.60
2018-05-03T13:33:34.627Z,31.20
2018-05-03T13:34:38.607Z,30.90
2018-05-03T13:35:41.280Z,30.90
2018-05-03T13:36:44.192Z,31.10
2018-05-03T13:37:46.684Z,31.70
2018-05-03T13:38:49.152Z,32.50
2018-05-03T13:39:52.071Z,32.70
2018-05-03T13:40:56.423Z,31.90
2018-05-03T13:41:58.987Z,31.90
2018-05-03T13:43:01.488Z,32.10
2018-05-03T13:44:03.958Z,32.40
2018-05-03T13:45:07.021Z,32.70
2018-05-03T13:46:12.436Z,33.10
2018-05-03T13:47:14.951Z,33.40